Terminal Aerodrome Forecast
Issued by NWS

Home | Current Version | Previous Version | Text Only | Print | Product List | Glossary On
Versions: 1 2 3 4 5 6 7 8 9 10 11 12 13 14 15 16 17 18
000
FTUS43 KMQT 141100
TAFCMX
TAF
KCMX 141128Z 1412/1512 28008KT P6SM BKN070
     FM141500 29012KT P6SM VCSH SCT030 OVC060
     FM141900 30011KT P6SM BKN060
     FM150100 31010KT P6SM BKN040
     FM150700 34010KT P6SM -SHRA BKN010=

USA.gov is the U.S. government's official web portal to all federal, state and local government web resources and services.